createdAt,value
2018-08-14T00:00:49.081Z,7.47
2018-08-14T00:03:23.745Z,7.20
2018-08-14T00:05:58.345Z,8.37
2018-08-14T00:08:32.988Z,8.75
2018-08-14T00:11:07.732Z,9.53
2018-08-14T00:13:42.351Z,8.70
2018-08-14T00:16:17.029Z,8.60
2018-08-14T00:18:51.800Z,8.77
2018-08-14T00:21:26.418Z,8.70
2018-08-14T00:24:01.000Z,9.50
2018-08-14T00:26:35.620Z,9.50
2018-08-14T00:29:10.206Z,8.97
2018-08-14T00:31:44.834Z,9.63
2018-08-14T00:34:35.596Z,9.33
2018-08-14T00:37:10.138Z,9.28
2018-08-14T00:39:45.069Z,9.83
2018-08-14T00:42:20.267Z,10.07
2018-08-14T00:44:54.876Z,9.43
2018-08-14T00:47:29.570Z,9.93
2018-08-14T00:50:05.468Z,10.30
2018-08-14T00:52:40.227Z,9.83
2018-08-14T00:55:15.967Z,9.83
2018-08-14T00:57:51.448Z,9.80
2018-08-14T01:00:29.716Z,9.33
2018-08-14T01:03:04.997Z,10.80
2018-08-14T01:05:39.775Z,9.60
2018-08-14T01:08:14.441Z,9.00
2018-08-14T01:10:49.161Z,9.93
2018-08-14T01:13:23.625Z,10.53
2018-08-14T01:15:58.088Z,9.83
2018-08-14T01:18:33.161Z,10.40
2018-08-14T01:21:07.778Z,10.77
2018-08-14T01:23:42.649Z,10.23
2018-08-14T01:26:17.429Z,10.27
2018-08-14T01:28:52.140Z,10.63
2018-08-14T01:31:26.730Z,9.70
2018-08-14T01:34:01.273Z,9.70
2018-08-14T01:36:35.789Z,10.63
2018-08-14T01:39:12.589Z,10.57
2018-08-14T01:41:47.289Z,10.70
2018-08-14T01:44:21.834Z,10.23
2018-08-14T01:46:56.320Z,10.50
2018-08-14T01:49:30.740Z,11.77
2018-08-14T01:52:05.456Z,10.73
2018-08-14T01:54:40.057Z,11.37
2018-08-14T01:57:14.608Z,11.80
2018-08-14T01:59:49.144Z,11.77
2018-08-14T02:02:23.717Z,12.57
2018-08-14T02:04:58.236Z,11.83
2018-08-14T02:07:32.844Z,11.30
2018-08-14T02:10:09.676Z,11.30
2018-08-14T02:12:44.360Z,12.10
2018-08-14T02:15:19.600Z,12.10
2018-08-14T02:17:54.194Z,11.57
2018-08-14T02:20:28.777Z,13.13
2018-08-14T02:23:03.523Z,12.50
2018-08-14T02:25:38.126Z,13.03
2018-08-14T02:28:12.742Z,12.20
2018-08-14T02:30:49.370Z,13.50
2018-08-14T02:34:30.257Z,12.97
2018-08-14T02:37:10.783Z,15.70
2018-08-14T02:39:51.117Z,13.87
2018-08-14T02:42:25.728Z,13.50
2018-08-14T02:45:00.237Z,14.03
2018-08-14T02:47:34.937Z,13.00
2018-08-14T02:50:25.754Z,16.57
2018-08-14T02:53:02.376Z,15.03
2018-08-14T02:55:45.194Z,14.57
2018-08-14T03:01:18.970Z,14.50
2018-08-14T03:03:53.515Z,13.50
2018-08-14T03:06:28.103Z,13.50
2018-08-14T03:09:02.783Z,14.33
2018-08-14T03:11:37.569Z,13.57
2018-08-14T03:14:12.265Z,13.53
2018-08-14T03:16:46.981Z,13.93
2018-08-14T03:19:21.527Z,13.63
2018-08-14T03:21:56.522Z,14.43
2018-08-14T03:24:31.108Z,15.17
2018-08-14T03:27:05.881Z,16.47
2018-08-14T03:29:40.613Z,16.37
2018-08-14T03:35:27.117Z,16.53
2018-08-14T03:38:08.472Z,15.60
2018-08-14T03:40:43.008Z,15.93
2018-08-14T03:43:17.384Z,16.73
2018-08-14T03:45:52.069Z,15.27
2018-08-14T03:48:26.728Z,14.47
2018-08-14T03:51:01.390Z,14.40
2018-08-14T03:53:37.365Z,15.07
2018-08-14T03:56:11.914Z,14.33
2018-08-14T03:58:46.994Z,14.03
2018-08-14T04:01:21.568Z,14.27
2018-08-14T04:03:56.092Z,13.37
2018-08-14T04:06:30.810Z,13.97
2018-08-14T04:09:07.629Z,14.47
2018-08-14T04:11:42.133Z,14.33
2018-08-14T04:14:16.861Z,15.97
2018-08-14T04:16:51.364Z,15.77
2018-08-14T04:19:26.088Z,16.27
2018-08-14T04:22:00.729Z,15.47
2018-08-14T04:24:35.806Z,15.63
2018-08-14T04:27:10.594Z,16.67
2018-08-14T04:29:45.281Z,16.63
2018-08-14T04:32:20.275Z,16.42
2018-08-14T04:34:55.017Z,15.13
2018-08-14T04:37:29.788Z,16.23
2018-08-14T04:40:05.086Z,17.37
2018-08-14T04:42:39.941Z,17.00
2018-08-14T04:45:14.753Z,17.27
2018-08-14T04:47:49.245Z,17.77
2018-08-14T04:50:23.784Z,17.20
2018-08-14T04:52:58.536Z,16.30
2018-08-14T04:55:33.032Z,17.57
2018-08-14T04:58:07.788Z,17.17
2018-08-14T05:00:42.440Z,17.43
2018-08-14T05:03:17.124Z,15.50
2018-08-14T05:05:51.493Z,16.20
2018-08-14T05:08:26.148Z,16.47
2018-08-14T05:11:00.827Z,18.90
2018-08-14T05:13:38.893Z,18.17
2018-08-14T05:16:13.359Z,18.60
2018-08-14T05:18:48.320Z,18.60
2018-08-14T05:21:23.100Z,20.35
2018-08-14T05:23:57.717Z,18.20
2018-08-14T05:26:32.365Z,19.67
2018-08-14T05:29:06.906Z,20.17
2018-08-14T05:31:41.753Z,18.73
2018-08-14T05:34:16.307Z,20.00
2018-08-14T05:36:51.599Z,20.30
2018-08-14T05:39:26.104Z,20.53
2018-08-14T05:42:00.757Z,22.20
2018-08-14T05:44:35.424Z,21.67
2018-08-14T05:47:10.095Z,22.87
2018-08-14T05:49:44.637Z,23.25
2018-08-14T05:52:19.232Z,24.77
2018-08-14T05:54:54.160Z,24.87
2018-08-14T05:57:29.131Z,24.30
2018-08-14T06:00:04.571Z,27.17
2018-08-14T06:02:39.554Z,28.27
2018-08-14T06:05:14.100Z,28.90
2018-08-14T06:07:48.993Z,28.67
2018-08-14T06:10:23.800Z,30.63
2018-08-14T06:12:58.240Z,28.00
2018-08-14T06:15:32.813Z,26.70
2018-08-14T06:18:07.396Z,29.53
2018-08-14T06:20:42.037Z,29.37
2018-08-14T06:23:16.704Z,30.60
2018-08-14T06:25:51.412Z,32.00
2018-08-14T06:28:26.061Z,34.57
2018-08-14T06:31:00.789Z,31.47
2018-08-14T06:33:35.368Z,32.23
2018-08-14T06:36:10.412Z,30.03
2018-08-14T06:38:45.149Z,30.87
2018-08-14T06:41:19.732Z,32.77
2018-08-14T06:43:54.465Z,30.47
2018-08-14T06:46:29.122Z,32.37
2018-08-14T06:49:03.706Z,31.47
2018-08-14T06:51:38.328Z,32.03
2018-08-14T06:54:13.122Z,33.17
2018-08-14T06:56:47.855Z,35.90
2018-08-14T06:59:22.396Z,34.03
2018-08-14T07:01:56.998Z,34.73
2018-08-14T07:04:31.656Z,35.70
2018-08-14T07:07:10.291Z,36.17
2018-08-14T07:10:01.113Z,34.63
2018-08-14T07:12:35.814Z,34.37
2018-08-14T07:15:22.225Z,34.43
2018-08-14T07:17:56.851Z,34.40
2018-08-14T07:20:31.609Z,34.80
2018-08-14T07:23:06.746Z,36.80
2018-08-14T07:25:41.398Z,35.33
2018-08-14T07:28:16.050Z,35.80
2018-08-14T07:30:50.558Z,34.27
2018-08-14T07:33:25.267Z,33.13
2018-08-14T07:35:59.826Z,33.73
2018-08-14T07:38:34.568Z,31.73
2018-08-14T07:41:09.140Z,29.67
2018-08-14T07:43:43.854Z,30.27
2018-08-14T07:46:18.432Z,29.60
2018-08-14T07:48:53.076Z,29.10
2018-08-14T07:51:27.707Z,29.10
2018-08-14T07:54:02.225Z,28.90
2018-08-14T07:56:36.704Z,26.63
2018-08-14T07:59:11.229Z,26.63
2018-08-14T08:01:45.727Z,29.30
2018-08-14T08:04:20.553Z,27.50
2018-08-14T08:06:55.734Z,26.17
2018-08-14T08:09:30.541Z,29.43
2018-08-14T08:12:05.347Z,28.40
2018-08-14T08:14:39.833Z,27.87
2018-08-14T08:17:14.449Z,29.00
2018-08-14T08:19:49.077Z,27.07
2018-08-14T08:22:23.719Z,25.93
2018-08-14T08:24:58.690Z,24.03
2018-08-14T08:27:33.386Z,23.17
2018-08-14T08:30:08.223Z,23.83
2018-08-14T08:32:42.842Z,22.67
2018-08-14T08:35:17.461Z,22.67
2018-08-14T08:37:52.049Z,21.77
2018-08-14T08:40:26.829Z,21.60
2018-08-14T08:43:01.445Z,17.30
2018-08-14T08:45:36.099Z,18.73
2018-08-14T08:48:18.522Z,16.30
2018-08-14T08:50:52.932Z,17.10
2018-08-14T08:53:27.569Z,16.90
2018-08-14T08:56:02.235Z,17.13
2018-08-14T08:58:36.780Z,16.17
2018-08-14T09:01:11.536Z,15.17
2018-08-14T09:03:46.116Z,14.30
2018-08-14T09:06:20.721Z,14.80
2018-08-14T09:08:55.353Z,13.23
2018-08-14T09:11:30.681Z,12.50
2018-08-14T09:14:05.169Z,12.03
2018-08-14T09:16:39.776Z,11.40
2018-08-14T09:19:14.413Z,11.90
2018-08-14T09:21:49.001Z,12.30
2018-08-14T09:24:23.424Z,12.27
2018-08-14T09:26:58.077Z,13.13
2018-08-14T09:29:32.814Z,13.13
2018-08-14T09:38:04.718Z,12.37
2018-08-14T09:40:45.830Z,11.43
2018-08-14T09:43:20.412Z,11.03
2018-08-14T09:45:55.009Z,11.67
2018-08-14T09:48:29.800Z,11.07
2018-08-14T09:51:04.505Z,11.70
2018-08-14T09:53:39.110Z,10.50
2018-08-14T09:56:13.726Z,10.70
2018-08-14T09:58:48.440Z,9.30
2018-08-14T10:01:24.441Z,8.70
2018-08-14T10:04:00.666Z,8.90
2018-08-14T10:06:40.492Z,9.88
2018-08-14T10:09:15.074Z,9.90
2018-08-14T10:11:49.926Z,8.97
2018-08-14T10:14:29.883Z,9.00
2018-08-14T10:17:04.525Z,8.13
2018-08-14T10:19:40.043Z,7.10
2018-08-14T10:22:14.438Z,6.33
2018-08-14T10:24:49.002Z,6.43
2018-08-14T10:27:23.651Z,5.50
2018-08-14T10:29:58.581Z,6.43
2018-08-14T10:32:33.059Z,6.10
2018-08-14T10:38:21.499Z,6.53
2018-08-14T10:41:20.033Z,5.67
2018-08-14T10:44:17.116Z,5.77
2018-08-14T10:46:52.012Z,5.87
2018-08-14T10:49:26.512Z,5.60
2018-08-14T10:52:01.378Z,5.60
2018-08-14T10:54:35.986Z,6.10
2018-08-14T10:57:10.572Z,5.37
2018-08-14T10:59:45.424Z,4.87
2018-08-14T11:02:20.069Z,3.87
2018-08-14T11:04:54.714Z,4.47
2018-08-14T11:07:29.118Z,3.40
2018-08-14T11:10:03.783Z,3.80
2018-08-14T11:12:38.516Z,3.43
2018-08-14T11:15:13.734Z,3.37
2018-08-14T11:17:49.053Z,3.53
2018-08-14T11:20:25.185Z,3.20
2018-08-14T11:23:01.036Z,2.70
2018-08-14T11:25:35.744Z,2.40
2018-08-14T11:28:10.317Z,2.90
2018-08-14T11:30:44.909Z,2.57
2018-08-14T11:33:19.463Z,2.60
2018-08-14T11:35:59.462Z,2.37
2018-08-14T11:38:35.172Z,2.53
2018-08-14T11:41:09.749Z,2.57
2018-08-14T11:43:44.408Z,2.43
2018-08-14T11:46:19.085Z,2.13
2018-08-14T11:48:57.202Z,2.40
2018-08-14T11:51:31.949Z,2.60
2018-08-14T11:54:06.597Z,2.67
2018-08-14T11:56:44.572Z,2.70
2018-08-14T11:59:24.782Z,2.70
2018-08-14T12:01:59.405Z,2.20
2018-08-14T12:04:34.174Z,1.60
2018-08-14T12:07:08.821Z,2.20
2018-08-14T12:09:43.266Z,1.70
2018-08-14T12:12:17.811Z,1.50
2018-08-14T12:14:52.390Z,1.77
2018-08-14T12:17:27.041Z,1.80
2018-08-14T12:20:01.513Z,1.63
2018-08-14T12:22:36.216Z,1.57
2018-08-14T12:25:11.821Z,1.53
2018-08-14T12:27:47.309Z,1.30
2018-08-14T12:30:23.354Z,1.63
2018-08-14T12:32:57.844Z,1.60
2018-08-14T12:35:32.405Z,1.73
2018-08-14T12:38:06.947Z,1.90
2018-08-14T12:40:41.500Z,1.47
2018-08-14T12:43:16.001Z,1.77
2018-08-14T12:45:50.608Z,1.40
2018-08-14T12:48:25.286Z,1.17
2018-08-14T12:50:59.907Z,1.30
2018-08-14T12:53:34.360Z,1.73
2018-08-14T12:56:08.966Z,1.43
2018-08-14T12:58:43.995Z,1.33
2018-08-14T13:01:18.737Z,1.27
2018-08-14T13:03:53.457Z,1.10
2018-08-14T13:06:28.116Z,1.20
2018-08-14T13:09:02.507Z,1.00
2018-08-14T13:11:37.044Z,0.90
2018-08-14T13:14:23.854Z,1.00
2018-08-14T13:16:58.641Z,0.93
2018-08-14T13:19:33.052Z,0.93
2018-08-14T13:22:07.887Z,0.90
2018-08-14T13:24:42.489Z,1.00
2018-08-14T13:27:17.514Z,0.90
2018-08-14T13:29:51.951Z,1.00
2018-08-14T13:32:26.472Z,1.27
2018-08-14T13:35:01.027Z,0.90
2018-08-14T13:37:35.772Z,0.80
2018-08-14T13:40:11.629Z,0.80
2018-08-14T13:42:46.458Z,1.00
2018-08-14T13:45:21.113Z,1.50
2018-08-14T13:47:55.896Z,1.33
2018-08-14T13:50:30.393Z,1.80
2018-08-14T13:53:05.043Z,1.00
2018-08-14T13:55:39.716Z,1.03
2018-08-14T13:58:14.406Z,0.80
2018-08-14T14:00:49.223Z,1.00
2018-08-14T14:03:23.846Z,0.90
2018-08-14T14:09:02.644Z,1.17
2018-08-14T14:14:52.324Z,0.90
2018-08-14T14:17:26.817Z,1.10
2018-08-14T14:20:01.430Z,1.10
2018-08-14T14:22:40.749Z,1.17
2018-08-14T14:25:15.327Z,1.23
2018-08-14T14:27:49.884Z,1.07
2018-08-14T14:30:24.484Z,1.00
2018-08-14T14:32:58.952Z,1.20
2018-08-14T14:35:33.528Z,1.10
2018-08-14T14:38:08.045Z,1.20
2018-08-14T14:40:42.801Z,1.30
2018-08-14T14:43:17.524Z,1.83
2018-08-14T14:45:52.112Z,1.40
2018-08-14T14:48:26.736Z,1.97
2018-08-14T14:51:01.326Z,1.40
2018-08-14T14:53:35.903Z,1.60
2018-08-14T14:56:10.654Z,1.30
2018-08-14T14:58:45.552Z,1.20
2018-08-14T15:01:20.202Z,1.60
2018-08-14T15:03:54.716Z,1.57
2018-08-14T15:06:29.445Z,1.10
2018-08-14T15:09:05.417Z,1.17
2018-08-14T15:11:40.590Z,1.20
2018-08-14T15:14:15.561Z,1.23
2018-08-14T15:16:50.025Z,1.62
2018-08-14T15:19:24.642Z,1.27
2018-08-14T15:21:59.178Z,1.80
2018-08-14T15:24:33.754Z,1.50
2018-08-14T15:27:08.523Z,1.13
2018-08-14T15:29:43.037Z,1.10
2018-08-14T15:32:17.729Z,1.47
2018-08-14T15:34:52.332Z,1.20
2018-08-14T15:37:27.008Z,1.50
2018-08-14T15:40:01.612Z,1.20
2018-08-14T15:42:36.184Z,1.20
2018-08-14T15:45:11.124Z,1.27
2018-08-14T15:47:45.696Z,1.20
2018-08-14T15:50:20.352Z,1.20
2018-08-14T15:52:55.072Z,1.20
2018-08-14T15:55:29.905Z,1.07
2018-08-14T15:58:04.655Z,1.20
2018-08-14T16:00:39.690Z,1.30
2018-08-14T16:03:14.443Z,1.17
2018-08-14T16:05:49.064Z,1.10
2018-08-14T16:08:23.664Z,1.17
2018-08-14T16:10:58.218Z,1.03
2018-08-14T16:13:32.880Z,1.10
2018-08-14T16:16:07.774Z,1.17
2018-08-14T16:18:42.570Z,1.20
2018-08-14T16:21:17.596Z,1.37
2018-08-14T16:23:52.128Z,1.37
2018-08-14T16:26:26.776Z,1.37
2018-08-14T16:29:01.541Z,1.20
2018-08-14T16:31:36.233Z,1.17
2018-08-14T16:37:17.498Z,2.80
2018-08-14T16:39:52.154Z,3.23
2018-08-14T16:42:26.987Z,3.67
2018-08-14T16:45:14.489Z,5.30
2018-08-14T16:47:52.668Z,4.63
2018-08-14T16:50:27.200Z,5.00
2018-08-14T16:53:01.852Z,5.20
2018-08-14T16:55:36.376Z,5.20
2018-08-14T16:58:11.166Z,5.37
2018-08-14T17:00:45.907Z,6.03
2018-08-14T17:03:20.573Z,6.10
2018-08-14T17:05:59.062Z,5.17
2018-08-14T17:08:33.649Z,5.47
2018-08-14T17:11:08.189Z,5.83
2018-08-14T17:13:42.813Z,6.00
2018-08-14T17:16:17.459Z,6.73
2018-08-14T17:18:52.135Z,6.97
2018-08-14T17:21:25.504Z,6.63
2018-08-14T17:24:00.280Z,6.73
2018-08-14T17:26:35.099Z,6.07
2018-08-14T17:29:09.665Z,6.33
2018-08-14T17:31:44.150Z,7.17
2018-08-14T17:34:24.473Z,6.53
2018-08-14T17:36:58.961Z,5.87
2018-08-14T17:39:33.929Z,6.77
2018-08-14T17:42:08.509Z,5.77
2018-08-14T17:44:43.057Z,5.93
2018-08-14T17:47:17.595Z,5.23
2018-08-14T17:49:52.249Z,5.50
2018-08-14T17:52:26.861Z,4.63
2018-08-14T17:55:01.570Z,4.43
2018-08-14T17:57:36.445Z,4.17
2018-08-14T18:00:16.414Z,4.10
2018-08-14T18:02:52.754Z,3.17
2018-08-14T18:05:27.329Z,2.90
2018-08-14T18:08:02.263Z,2.60
2018-08-14T18:10:36.984Z,2.47
2018-08-14T18:13:11.697Z,2.90
2018-08-14T18:15:50.477Z,3.10
2018-08-14T18:18:25.066Z,3.43
2018-08-14T18:20:59.984Z,2.63
2018-08-14T18:23:34.512Z,2.80
2018-08-14T18:26:09.249Z,3.20
2018-08-14T18:28:43.817Z,2.83
2018-08-14T18:31:18.274Z,3.50
2018-08-14T18:33:52.880Z,2.90
2018-08-14T18:36:39.878Z,3.07
2018-08-14T18:39:18.016Z,2.90
2018-08-14T18:43:16.912Z,2.83
2018-08-14T18:46:05.853Z,2.30
2018-08-14T18:48:40.512Z,2.67
2018-08-14T18:51:15.287Z,2.60
2018-08-14T18:53:49.781Z,2.73
2018-08-14T18:59:36.275Z,2.50
2018-08-14T19:02:14.175Z,2.73
2018-08-14T19:04:48.945Z,2.63
2018-08-14T19:07:23.422Z,3.27
2018-08-14T19:10:01.691Z,2.80
2018-08-14T19:12:59.662Z,2.60
2018-08-14T19:15:36.796Z,2.83
2018-08-14T19:18:12.475Z,2.87
2018-08-14T19:20:46.989Z,3.07
2018-08-14T19:23:21.498Z,3.10
2018-08-14T19:25:56.145Z,3.73
2018-08-14T19:28:30.816Z,3.40
2018-08-14T19:31:05.500Z,3.17
2018-08-14T19:33:40.057Z,3.20
2018-08-14T19:36:14.973Z,3.43
2018-08-14T19:38:49.682Z,3.23
2018-08-14T19:41:24.265Z,4.60
2018-08-14T19:43:59.112Z,4.90
2018-08-14T19:46:33.912Z,5.03
2018-08-14T19:49:08.537Z,5.37
2018-08-14T19:51:43.131Z,6.40
2018-08-14T19:54:17.685Z,5.97
2018-08-14T19:56:52.243Z,6.17
2018-08-14T19:59:27.008Z,8.23
2018-08-14T20:02:01.584Z,7.73
2018-08-14T20:04:36.165Z,8.70
2018-08-14T20:07:10.784Z,8.68
2018-08-14T20:09:45.482Z,8.60
2018-08-14T20:12:20.126Z,9.40
2018-08-14T20:14:54.818Z,9.00
2018-08-14T20:17:29.324Z,9.27
2018-08-14T20:20:04.430Z,9.50
2018-08-14T20:22:38.932Z,9.00
2018-08-14T20:25:13.637Z,9.40
2018-08-14T20:27:48.160Z,8.53
2018-08-14T20:30:22.820Z,8.63
2018-08-14T20:32:57.452Z,8.97
2018-08-14T20:35:32.008Z,9.20
2018-08-14T20:38:06.922Z,8.70
2018-08-14T20:40:41.523Z,8.97
2018-08-14T20:43:16.187Z,8.80
2018-08-14T20:45:50.736Z,8.40
2018-08-14T20:48:25.344Z,9.33
2018-08-14T20:50:59.916Z,9.23
2018-08-14T20:53:34.393Z,8.40
2018-08-14T20:56:08.946Z,9.70
2018-08-14T20:58:43.369Z,8.73
2018-08-14T21:01:18.205Z,9.73
2018-08-14T21:04:09.017Z,8.83
2018-08-14T21:06:43.613Z,9.25
2018-08-14T21:09:42.443Z,9.10
2018-08-14T21:12:21.165Z,8.90
2018-08-14T21:14:56.117Z,8.03
2018-08-14T21:17:30.786Z,8.50
2018-08-14T21:20:06.714Z,9.40
2018-08-14T21:22:41.522Z,8.80
2018-08-14T21:25:16.525Z,9.20
2018-08-14T21:27:51.229Z,9.23
2018-08-14T21:30:25.917Z,9.07
2018-08-14T21:33:00.736Z,9.40
2018-08-14T21:35:35.353Z,9.27
2018-08-14T21:38:09.824Z,9.63
2018-08-14T21:40:44.395Z,9.10
2018-08-14T21:43:18.981Z,10.20
2018-08-14T21:45:53.614Z,9.73
2018-08-14T21:48:28.318Z,9.53
2018-08-14T21:51:03.008Z,7.67
2018-08-14T21:53:37.518Z,6.20
2018-08-14T21:56:12.000Z,5.90
2018-08-14T21:58:46.670Z,5.50
2018-08-14T22:01:21.251Z,4.70
2018-08-14T22:03:55.754Z,4.67
2018-08-14T22:06:30.363Z,4.50
2018-08-14T22:09:07.061Z,4.47
2018-08-14T22:11:41.622Z,4.90
2018-08-14T22:14:16.392Z,4.57
2018-08-14T22:16:51.261Z,4.03
2018-08-14T22:19:25.921Z,4.20
2018-08-14T22:22:00.342Z,4.17
2018-08-14T22:24:35.190Z,4.70
2018-08-14T22:27:09.858Z,3.85
2018-08-14T22:29:44.411Z,4.60
2018-08-14T22:32:18.904Z,5.20
2018-08-14T22:34:53.445Z,4.57
2018-08-14T22:37:28.083Z,4.30
2018-08-14T22:40:02.803Z,4.20
2018-08-14T22:42:37.722Z,4.03
2018-08-14T22:45:12.378Z,3.93
2018-08-14T22:47:47.012Z,3.83
2018-08-14T22:50:21.685Z,3.67
2018-08-14T22:52:56.164Z,4.10
2018-08-14T22:55:30.890Z,3.87
2018-08-14T22:58:05.530Z,3.83
2018-08-14T23:00:40.497Z,3.73
2018-08-14T23:03:15.110Z,4.23
2018-08-14T23:05:49.798Z,3.53
2018-08-14T23:08:24.608Z,3.67
2018-08-14T23:10:59.309Z,4.27
2018-08-14T23:13:33.794Z,4.00
2018-08-14T23:16:08.232Z,3.67
2018-08-14T23:18:42.811Z,3.60
2018-08-14T23:21:17.424Z,3.50
2018-08-14T23:23:52.054Z,3.90
2018-08-14T23:26:26.572Z,4.10
2018-08-14T23:29:01.025Z,4.23
2018-08-14T23:31:35.904Z,4.30
2018-08-14T23:34:10.485Z,4.23
2018-08-14T23:36:45.168Z,3.80
2018-08-14T23:39:19.833Z,3.73
2018-08-14T23:41:54.419Z,3.80
2018-08-14T23:44:29.044Z,4.03
2018-08-14T23:47:03.682Z,5.07
2018-08-14T23:49:38.448Z,4.53
2018-08-14T23:52:12.929Z,4.20
2018-08-14T23:54:47.850Z,4.50
2018-08-14T23:57:22.524Z,4.03
2018-08-14T23:59:57.100Z,4.73
